Westhampton Beach, New York
Current Conditions -  °F | °C
As of 9:53 PM on Thursday 27 Nov 2014 (Local Time) from KFOK Reporting Station
Overcast Overcast  
Wind Chill: -2°   Ceiling: 5000
Heat Index:   Visibility: 10mi
Dew Point: -2°   Wind: 13mph
Humidity: 73%   Direction: 320°NW
Pressure: 30.02"   Gusts: NA
Location:  40.8°N, 72.61°W
Report Text: KFOK 280253Z AUTO 32011KT 10SM FEW023 OVC050 02/M02 A3002 RMK AO2 SLP167 T00221022 50001 TSNO
Loading
Personal Weather Stations






























Interactive Weather Map New forecast layout! Learn more

10-Day Weather Forecast

Advertisements
Track Severe Weather on mobile